createdAt,value
2022-09-02T03:47:02.072Z,13.20
2022-09-02T03:49:28.979Z,13.20
2022-09-02T03:51:56.242Z,13.10
2022-09-02T03:54:22.986Z,13.10
2022-09-02T03:56:50.174Z,13.10
2022-09-02T03:59:17.213Z,13.00
2022-09-02T04:01:44.850Z,13.00
2022-09-02T04:04:11.931Z,13.00
2022-09-02T04:06:39.071Z,12.90
2022-09-02T04:09:06.395Z,12.90
2022-09-02T04:11:33.493Z,12.90
2022-09-02T04:14:00.336Z,12.90
2022-09-02T04:16:28.743Z,12.80
2022-09-02T04:18:57.883Z,12.70
2022-09-02T04:21:25.779Z,12.60
2022-09-02T04:23:52.622Z,12.60
2022-09-02T04:26:20.732Z,12.70
2022-09-02T04:28:49.515Z,12.70
2022-09-02T04:31:19.485Z,12.60
2022-09-02T04:33:46.972Z,12.60
2022-09-02T04:36:17.013Z,12.60
2022-09-02T04:38:44.483Z,12.60
2022-09-02T04:41:14.715Z,12.60
2022-09-02T04:43:42.153Z,12.60
2022-09-02T04:46:12.358Z,12.60
2022-09-02T04:48:40.373Z,12.60
2022-09-02T04:51:16.577Z,12.60
2022-09-02T04:53:44.515Z,12.60
2022-09-02T04:56:14.860Z,12.50
2022-09-02T04:58:44.356Z,12.50
2022-09-02T05:01:18.210Z,12.50
2022-09-02T05:03:45.730Z,12.60
2022-09-02T05:06:15.431Z,12.60
2022-09-02T05:08:43.415Z,12.60
2022-09-02T05:11:13.503Z,12.70
2022-09-02T05:13:41.188Z,12.70
2022-09-02T05:16:07.993Z,12.80
2022-09-02T05:18:35.236Z,12.90
2022-09-02T05:21:06.467Z,12.90
2022-09-02T05:23:34.728Z,12.90
2022-09-02T05:26:05.923Z,12.90
2022-09-02T05:28:33.441Z,13.00
2022-09-02T05:31:10.851Z,13.00
2022-09-02T05:33:40.830Z,13.10
2022-09-02T05:36:09.872Z,13.20
2022-09-02T05:38:36.608Z,13.20
2022-09-02T05:41:08.435Z,13.30
2022-09-02T05:43:38.963Z,13.30
2022-09-02T05:46:11.771Z,13.30
2022-09-02T05:48:58.183Z,13.40
2022-09-02T05:51:25.954Z,13.40
2022-09-02T05:53:54.126Z,13.40
2022-09-02T05:56:22.305Z,13.50
2022-09-02T05:58:50.100Z,13.50
2022-09-02T06:01:18.591Z,13.60
2022-09-02T06:03:46.012Z,13.60
2022-09-02T06:06:13.927Z,13.70
2022-09-02T06:08:41.370Z,13.70
2022-09-02T06:11:10.547Z,13.80
2022-09-02T06:13:40.998Z,13.80
2022-09-02T06:16:12.284Z,13.90
2022-09-02T06:18:39.369Z,13.90
2022-09-02T06:21:06.932Z,14.00
2022-09-02T06:23:39.092Z,14.00
2022-09-02T06:26:08.048Z,14.10
2022-09-02T06:28:35.701Z,14.10
2022-09-02T06:31:11.285Z,14.30
2022-09-02T06:33:38.165Z,14.40
2022-09-02T06:36:11.330Z,14.40
2022-09-02T06:38:46.057Z,14.60
2022-09-02T06:41:19.490Z,14.80
2022-09-02T06:43:46.240Z,14.80
2022-09-02T06:46:28.327Z,14.90
2022-09-02T06:48:55.239Z,15.00
2022-09-02T06:51:31.828Z,15.10
2022-09-02T06:54:00.635Z,15.20
2022-09-02T06:56:28.398Z,15.30
2022-09-02T06:58:55.829Z,15.50
2022-09-02T07:01:26.097Z,15.50
2022-09-02T07:04:11.965Z,15.70
2022-09-02T07:06:44.530Z,15.70
2022-09-02T07:09:14.383Z,15.80
2022-09-02T07:11:41.180Z,15.90
2022-09-02T07:14:08.557Z,16.00
2022-09-02T07:16:42.464Z,16.00
2022-09-02T07:19:13.343Z,16.00
2022-09-02T07:21:42.069Z,16.20
2022-09-02T07:24:11.183Z,16.10
2022-09-02T07:26:38.133Z,16.30
2022-09-02T07:29:08.727Z,16.50
2022-09-02T07:31:41.320Z,16.60
2022-09-02T07:34:09.936Z,16.80
2022-09-02T07:36:37.031Z,17.00
2022-09-02T07:39:06.425Z,17.00
2022-09-02T07:41:33.329Z,17.10
2022-09-02T07:44:00.552Z,17.20
2022-09-02T07:46:29.963Z,17.30
2022-09-02T07:48:57.152Z,17.50
2022-09-02T07:51:24.338Z,17.50
2022-09-02T07:53:57.985Z,17.60
2022-09-02T07:56:24.818Z,17.80
2022-09-02T07:58:51.685Z,18.00
2022-09-02T08:01:23.450Z,18.00
2022-09-02T08:03:51.144Z,18.10
2022-09-02T08:06:33.612Z,18.50
2022-09-02T08:09:01.817Z,18.70
2022-09-02T08:11:28.903Z,19.00
2022-09-02T08:13:55.690Z,19.10
2022-09-02T08:16:22.664Z,19.40
2022-09-02T08:18:49.470Z,19.90
2022-09-02T08:21:16.206Z,20.80
2022-09-02T08:23:43.377Z,21.60
2022-09-02T08:26:11.191Z,22.60
2022-09-02T08:28:38.480Z,23.30
2022-09-02T08:31:07.182Z,23.80
2022-09-02T08:33:34.414Z,24.50
2022-09-02T08:36:11.067Z,24.90
2022-09-02T08:38:38.485Z,25.90
2022-09-02T08:41:24.786Z,27.00
2022-09-02T08:43:58.579Z,27.10
2022-09-02T08:46:27.222Z,27.90
2022-09-02T08:49:04.151Z,28.60
2022-09-02T08:51:37.680Z,28.80
2022-09-02T08:54:28.297Z,29.80
2022-09-02T08:56:56.279Z,30.80
2022-09-02T08:59:26.541Z,31.30
2022-09-02T09:02:17.753Z,31.70
2022-09-02T09:05:16.808Z,31.70
2022-09-02T09:08:14.888Z,32.20
2022-09-02T09:10:44.636Z,32.30
2022-09-02T09:13:47.858Z,32.80
2022-09-02T09:16:25.041Z,33.20
2022-09-02T09:19:00.237Z,32.30
2022-09-02T09:21:27.156Z,32.70
2022-09-02T09:23:55.404Z,33.30
2022-09-02T09:26:28.879Z,33.30
2022-09-02T09:28:56.497Z,33.50
2022-09-02T09:31:31.130Z,34.40
2022-09-02T09:34:05.909Z,34.70
2022-09-02T09:36:41.582Z,35.00
2022-09-02T09:39:30.704Z,35.80
2022-09-02T09:42:03.195Z,36.70
2022-09-02T09:44:45.869Z,36.60
2022-09-02T09:47:26.310Z,37.20
2022-09-02T09:50:14.558Z,37.70
2022-09-02T09:52:41.365Z,37.90
2022-09-02T09:55:25.226Z,37.60
2022-09-02T09:57:54.761Z,37.30
2022-09-02T10:00:34.712Z,37.20
2022-09-02T10:03:04.669Z,36.80
2022-09-02T10:05:35.529Z,36.90
2022-09-02T10:08:04.268Z,36.90
2022-09-02T10:10:36.948Z,36.50
2022-09-02T10:13:27.048Z,37.00
2022-09-02T10:16:07.849Z,37.40
2022-09-02T10:18:54.771Z,37.90
2022-09-02T10:21:45.185Z,37.60
2022-09-02T10:24:31.246Z,36.00
2022-09-02T10:27:00.389Z,35.20
2022-09-02T10:29:59.993Z,34.80
2022-09-02T10:32:46.610Z,33.70
2022-09-02T10:35:45.238Z,33.20
2022-09-02T10:38:33.490Z,33.00
2022-09-02T10:41:37.468Z,33.20
2022-09-02T10:44:35.116Z,34.00
2022-09-02T10:47:29.373Z,35.30
2022-09-02T10:50:03.327Z,35.20
2022-09-02T10:52:45.326Z,35.50
2022-09-02T10:55:43.014Z,36.20
2022-09-02T10:58:39.309Z,35.60
2022-09-02T11:01:10.592Z,34.30
2022-09-02T11:03:56.295Z,34.20
2022-09-02T11:06:51.777Z,33.50
2022-09-02T11:09:43.515Z,34.00
2022-09-02T11:12:16.267Z,35.00
2022-09-02T11:15:09.853Z,35.40
2022-09-02T11:17:43.586Z,34.60
2022-09-02T11:20:30.761Z,33.80
2022-09-02T11:23:08.453Z,34.00
2022-09-02T11:25:45.102Z,33.30
2022-09-02T11:28:49.019Z,33.30
2022-09-02T11:31:20.031Z,33.20
2022-09-02T11:36:38.662Z,34.20
2022-09-02T11:39:36.641Z,33.90
2022-09-02T11:42:47.190Z,33.70
2022-09-02T11:45:36.165Z,33.50
2022-09-02T11:48:29.478Z,33.60
2022-09-02T11:51:02.113Z,33.60
2022-09-02T11:53:38.104Z,32.80
2022-09-02T11:56:15.898Z,32.10
2022-09-02T11:58:45.478Z,31.70
2022-09-02T12:01:47.467Z,31.30
2022-09-02T12:07:08.725Z,31.70
2022-09-02T12:09:50.710Z,31.10
2022-09-02T12:12:36.286Z,30.20
2022-09-02T12:15:16.917Z,29.90
2022-09-02T12:17:50.040Z,29.70
2022-09-02T12:20:39.203Z,29.80
2022-09-02T12:23:09.004Z,30.00
2022-09-02T12:25:49.585Z,29.80
2022-09-02T12:28:26.522Z,29.80
2022-09-02T12:30:56.522Z,29.70
2022-09-02T12:33:34.905Z,29.90
2022-09-02T12:36:04.951Z,30.10
2022-09-02T12:38:34.901Z,30.70
2022-09-02T12:41:01.645Z,30.20
2022-09-02T12:43:37.425Z,30.00
2022-09-02T12:46:21.416Z,29.80
2022-09-02T12:49:11.229Z,29.10
2022-09-02T12:51:57.080Z,28.70
2022-09-02T12:54:48.889Z,28.50
2022-09-02T12:57:17.884Z,28.40
2022-09-02T12:59:46.547Z,28.20
2022-09-02T13:02:28.209Z,27.90
2022-09-02T13:05:15.985Z,27.90
2022-09-02T13:07:54.406Z,28.30
2022-09-02T13:10:37.705Z,28.60
2022-09-02T13:13:37.988Z,28.90
2022-09-02T13:16:18.627Z,29.30
2022-09-02T13:19:11.627Z,29.70
2022-09-02T13:21:53.153Z,29.90
2022-09-02T13:24:31.084Z,30.30
2022-09-02T13:26:58.806Z,30.30
2022-09-02T13:30:03.250Z,30.00
2022-09-02T13:32:31.383Z,30.00
2022-09-02T13:35:03.621Z,30.20
2022-09-02T13:37:32.196Z,30.50
2022-09-02T13:40:00.595Z,30.50
2022-09-02T13:42:32.810Z,30.60
2022-09-02T13:45:13.422Z,31.00
2022-09-02T13:47:48.302Z,30.90
2022-09-02T13:50:18.247Z,30.80
2022-09-02T13:53:45.095Z,30.80
2022-09-02T13:55:35.318Z,30.80
2022-09-02T13:58:05.321Z,31.20
2022-09-02T14:00:39.346Z,31.00
2022-09-02T14:03:10.406Z,30.30
2022-09-02T14:05:41.894Z,29.60
2022-09-02T14:08:15.625Z,29.10
2022-09-02T14:10:43.996Z,29.10
2022-09-02T14:13:12.174Z,29.40
2022-09-02T14:15:39.543Z,29.40
2022-09-02T14:18:20.755Z,29.40
2022-09-02T14:21:18.105Z,29.10
2022-09-02T14:23:52.106Z,28.80
2022-09-02T14:26:30.869Z,28.50
2022-09-02T14:28:57.614Z,28.70
2022-09-02T14:31:30.507Z,28.80
2022-09-02T14:33:57.880Z,29.10
2022-09-02T14:36:24.526Z,29.30
2022-09-02T14:38:57.394Z,29.40
2022-09-02T14:41:25.309Z,29.70
2022-09-02T14:43:56.829Z,29.60
2022-09-02T14:46:28.369Z,29.10
2022-09-02T14:49:11.724Z,29.00
2022-09-02T14:51:39.809Z,29.10
2022-09-02T14:54:07.464Z,29.20
2022-09-02T14:56:44.413Z,28.90
2022-09-02T14:59:11.182Z,28.50
2022-09-02T15:01:47.113Z,28.50
2022-09-02T15:04:15.401Z,28.50
2022-09-02T15:06:43.291Z,28.50
2022-09-02T15:09:10.798Z,28.70
2022-09-02T15:11:39.614Z,28.40
2022-09-02T15:14:06.930Z,27.90
2022-09-02T15:16:33.695Z,27.60
2022-09-02T15:19:00.447Z,27.40
2022-09-02T15:21:27.269Z,27.40
2022-09-02T15:23:54.374Z,27.20
2022-09-02T15:26:21.150Z,27.00
2022-09-02T15:28:47.953Z,26.90
2022-09-02T15:31:15.561Z,26.60
2022-09-02T15:33:42.361Z,26.30
2022-09-02T15:36:12.052Z,26.00
2022-09-02T15:38:41.124Z,25.70
2022-09-02T15:41:16.373Z,25.50
2022-09-02T15:43:44.049Z,25.30
2022-09-02T15:46:40.271Z,25.00
2022-09-02T15:49:09.646Z,24.80
2022-09-02T15:51:39.056Z,24.70
2022-09-02T15:54:08.744Z,24.50
2022-09-02T15:56:37.981Z,24.40
2022-09-02T15:59:11.397Z,24.40
2022-09-02T16:01:40.904Z,24.30
2022-09-02T16:04:07.903Z,24.20
2022-09-02T16:06:37.814Z,24.10
2022-09-02T16:09:04.976Z,24.10
2022-09-02T16:11:31.990Z,23.90
2022-09-02T16:13:58.792Z,23.90
2022-09-02T16:16:25.611Z,23.80
2022-09-02T16:18:54.026Z,23.70
2022-09-02T16:21:22.058Z,23.70
2022-09-02T16:23:50.361Z,23.60
2022-09-02T16:26:27.498Z,23.50
2022-09-02T16:28:56.673Z,23.40
2022-09-02T16:31:26.925Z,23.40
2022-09-02T16:33:59.865Z,23.30
2022-09-02T16:36:29.171Z,23.20
2022-09-02T16:39:01.110Z,23.20
2022-09-02T16:41:36.456Z,23.00
2022-09-02T16:44:06.209Z,22.90
2022-09-02T16:46:34.161Z,22.70
2022-09-02T16:49:01.125Z,22.60
2022-09-02T16:51:30.068Z,22.40
2022-09-02T16:53:59.374Z,22.30
2022-09-02T16:56:27.164Z,22.30
2022-09-02T16:58:54.749Z,22.20
2022-09-02T17:01:23.313Z,22.20
2022-09-02T17:03:50.638Z,22.30
2022-09-02T17:06:17.815Z,22.30
2022-09-02T17:08:44.842Z,22.30
2022-09-02T17:11:32.802Z,22.30
2022-09-02T17:14:02.715Z,22.20
2022-09-02T17:16:35.074Z,22.10
2022-09-02T17:19:04.930Z,21.90
2022-09-02T17:21:36.253Z,21.90
2022-09-02T17:24:05.649Z,21.80
2022-09-02T17:26:34.764Z,21.80
2022-09-02T17:29:07.350Z,21.80
2022-09-02T17:31:34.370Z,21.70
2022-09-02T17:34:04.015Z,21.80
2022-09-02T17:36:32.222Z,21.80
2022-09-02T17:39:07.778Z,21.90
2022-09-02T17:41:52.977Z,21.90
2022-09-02T17:44:20.402Z,21.80
2022-09-02T17:46:47.324Z,21.80
2022-09-02T17:49:17.124Z,21.90
2022-09-02T17:51:45.282Z,22.00
2022-09-02T17:54:13.236Z,22.00
2022-09-02T17:56:47.510Z,22.00
2022-09-02T17:59:27.864Z,22.10
2022-09-02T18:02:03.946Z,22.10
2022-09-02T18:04:38.025Z,22.00
2022-09-02T18:07:34.749Z,22.00
2022-09-02T18:10:01.574Z,21.90
2022-09-02T18:12:28.378Z,21.70
2022-09-02T18:14:59.205Z,21.50
2022-09-02T18:17:37.294Z,21.20
2022-09-02T18:20:16.773Z,20.90
2022-09-02T18:23:09.870Z,20.80
2022-09-02T18:26:21.990Z,20.60
2022-09-02T18:29:18.375Z,20.60
2022-09-02T18:32:03.916Z,20.70
2022-09-02T18:35:08.476Z,20.70
2022-09-02T18:37:54.818Z,20.60
2022-09-02T18:40:33.815Z,20.60
2022-09-02T18:43:12.869Z,20.60
2022-09-02T18:45:50.086Z,20.70
2022-09-02T18:48:33.410Z,20.80
2022-09-02T18:51:07.958Z,20.90
2022-09-02T18:53:40.137Z,20.90
2022-09-02T18:56:09.170Z,20.80
2022-09-02T18:58:56.991Z,20.80
2022-09-02T19:01:35.413Z,20.80
2022-09-02T19:04:02.441Z,20.80
2022-09-02T19:06:34.397Z,20.60
2022-09-02T19:09:12.051Z,20.60
2022-09-02T19:11:39.674Z,20.60
2022-09-02T19:14:26.605Z,20.60
2022-09-02T19:16:58.252Z,20.60
2022-09-02T19:19:27.499Z,20.50
2022-09-02T19:22:00.474Z,20.50
2022-09-02T19:24:31.503Z,20.40
2022-09-02T19:27:12.462Z,20.30
2022-09-02T19:29:43.437Z,20.20
2022-09-02T19:32:12.410Z,20.10
2022-09-02T19:34:42.153Z,20.10
2022-09-02T19:37:11.684Z,20.10
2022-09-02T19:39:38.467Z,20.00
2022-09-02T19:42:06.560Z,20.00
2022-09-02T19:44:33.309Z,19.80
2022-09-02T19:49:46.806Z,19.50
2022-09-02T19:52:14.059Z,19.50
2022-09-02T19:54:41.713Z,19.40
2022-09-02T19:57:08.467Z,19.20
2022-09-02T19:59:35.157Z,19.10
2022-09-02T20:02:04.449Z,19.00
2022-09-02T20:04:31.638Z,19.00
2022-09-02T20:06:58.876Z,19.00
2022-09-02T20:09:25.742Z,19.00
2022-09-02T20:11:56.430Z,18.90
2022-09-02T20:14:23.378Z,18.90
2022-09-02T20:17:00.536Z,18.80
2022-09-02T20:19:27.972Z,18.80
2022-09-02T20:21:54.661Z,18.80
2022-09-02T20:24:25.616Z,18.70
2022-09-02T20:27:40.482Z,18.70
2022-09-02T20:30:19.382Z,18.70
2022-09-02T20:32:54.833Z,18.70
2022-09-02T20:35:24.593Z,18.70
2022-09-02T20:38:14.573Z,18.60
2022-09-02T20:40:46.298Z,18.60
2022-09-02T20:43:25.291Z,18.60
2022-09-02T20:46:21.135Z,18.60
2022-09-02T20:49:05.349Z,18.50
2022-09-02T20:52:08.086Z,18.50
2022-09-02T20:54:39.548Z,18.60
2022-09-02T20:57:35.437Z,18.50
2022-09-02T21:00:12.401Z,18.50
2022-09-02T21:03:11.358Z,18.50
2022-09-02T21:05:43.822Z,18.50
2022-09-02T21:08:24.681Z,18.40
2022-09-02T21:10:58.980Z,18.40
2022-09-02T21:13:44.042Z,18.30
2022-09-02T21:16:21.950Z,18.30
2022-09-02T21:19:19.309Z,18.20
2022-09-02T21:22:03.238Z,18.00
2022-09-02T21:24:37.053Z,17.90
2022-09-02T21:27:08.908Z,17.90
2022-09-02T21:29:50.829Z,17.90
2022-09-02T21:32:40.238Z,17.80
2022-09-02T21:35:40.717Z,17.70
2022-09-02T21:38:53.606Z,17.70
2022-09-02T21:41:35.923Z,17.60
2022-09-02T21:44:22.955Z,17.60
2022-09-02T21:47:16.902Z,17.60
2022-09-02T21:50:08.185Z,17.70
2022-09-02T21:52:41.139Z,17.70
2022-09-02T21:55:38.217Z,17.70
2022-09-02T21:58:47.203Z,17.60
2022-09-02T22:01:28.855Z,17.50
2022-09-02T22:04:05.729Z,17.50
2022-09-02T22:06:43.298Z,17.40
2022-09-02T22:09:28.422Z,17.50
2022-09-02T22:12:07.313Z,17.50
2022-09-02T22:14:48.270Z,17.30
2022-09-02T22:17:33.894Z,17.30
2022-09-02T22:20:02.798Z,17.30
2022-09-02T22:22:45.401Z,17.30
2022-09-02T22:25:16.401Z,17.20
2022-09-02T22:28:12.355Z,17.20
2022-09-02T22:30:44.042Z,17.20
2022-09-02T22:33:14.752Z,17.10
2022-09-02T22:35:51.507Z,17.10
2022-09-02T22:38:30.809Z,16.90
2022-09-02T22:41:19.381Z,16.90
2022-09-02T22:43:57.937Z,16.80
2022-09-02T22:47:06.285Z,16.80
2022-09-02T22:49:59.969Z,16.90
2022-09-02T22:52:45.888Z,16.80
2022-09-02T22:55:35.350Z,16.80
2022-09-02T22:58:53.483Z,16.90
2022-09-02T23:01:51.715Z,16.80
2022-09-02T23:04:41.146Z,16.80
2022-09-02T23:07:07.863Z,16.80
2022-09-02T23:09:38.762Z,16.80
2022-09-02T23:12:14.502Z,16.80
2022-09-02T23:14:50.732Z,16.70
2022-09-02T23:17:23.639Z,16.60
2022-09-02T23:20:01.674Z,16.50
2022-09-02T23:23:03.425Z,16.50
2022-09-02T23:25:42.351Z,16.50
2022-09-02T23:28:11.827Z,16.40
